createdAt,value
2023-04-23T00:02:31.265Z,100421.69
2023-04-23T00:05:05.063Z,100445.41
2023-04-23T00:07:34.965Z,100431.84
2023-04-23T00:10:05.650Z,100423.25
2023-04-23T00:12:35.714Z,100432.16
2023-04-23T00:15:05.573Z,100417.19
2023-04-23T00:17:33.822Z,100407.75
2023-04-23T00:20:02.358Z,100393.88
2023-04-23T00:22:30.507Z,100389.97
2023-04-23T00:24:58.653Z,100398.75
2023-04-23T00:27:27.211Z,100386.25
2023-04-23T00:29:56.974Z,100382.69
2023-04-23T00:32:24.994Z,100377.81
2023-04-23T00:34:54.809Z,100375.97
2023-04-23T00:37:22.860Z,100370.09
2023-04-23T00:39:51.004Z,100368.81
2023-04-23T00:42:19.396Z,100362.22
2023-04-23T00:44:48.078Z,100361.19
2023-04-23T00:47:18.036Z,100361.88
2023-04-23T00:49:47.059Z,100328.91
2023-04-23T00:52:15.145Z,100342.59
2023-04-23T00:54:43.463Z,100354.66
2023-04-23T00:57:12.417Z,100361.53
2023-04-23T00:59:40.768Z,100363.00
2023-04-23T01:02:09.217Z,100379.13
2023-04-23T01:04:40.402Z,100402.66
2023-04-23T01:07:09.019Z,100379.22
2023-04-23T01:09:37.872Z,100394.03
2023-04-23T01:12:07.776Z,100411.56
2023-04-23T01:14:37.159Z,100405.25
2023-04-23T01:17:06.038Z,100396.16
2023-04-23T01:19:34.488Z,100394.28
2023-04-23T01:22:04.085Z,100385.81
2023-04-23T01:24:34.047Z,100374.16
2023-04-23T01:27:02.563Z,100384.91
2023-04-23T01:29:31.544Z,100380.41
2023-04-23T01:32:01.015Z,100382.84
2023-04-23T01:34:30.076Z,100368.66
2023-04-23T01:36:59.307Z,100361.53
2023-04-23T01:39:27.747Z,100354.66
2023-04-23T01:41:58.753Z,100368.97
2023-04-23T01:44:26.843Z,100356.53
2023-04-23T01:46:55.319Z,100357.53
2023-04-23T01:49:23.774Z,100365.72
2023-04-23T01:51:52.046Z,100356.63
2023-04-23T01:54:20.157Z,100354.56
2023-04-23T01:56:48.449Z,100331.09
2023-04-23T01:59:18.045Z,100349.06
2023-04-23T02:01:47.407Z,100351.78
2023-04-23T02:04:17.137Z,100336.19
2023-04-23T02:06:47.837Z,100344.16
2023-04-23T02:09:16.208Z,100338.84
2023-04-23T02:11:44.588Z,100331.50
2023-04-23T02:14:13.035Z,100342.22
2023-04-23T02:16:42.845Z,100330.50
2023-04-23T02:19:12.125Z,100324.41
2023-04-23T02:21:41.257Z,100333.16
2023-04-23T02:24:09.435Z,100325.28
2023-04-23T02:26:37.578Z,100292.22
2023-04-23T02:29:05.893Z,100307.94
2023-04-23T02:31:34.341Z,100279.53
2023-04-23T02:34:04.003Z,100302.53
2023-04-23T02:36:32.568Z,100291.03
2023-04-23T02:39:00.887Z,100298.72
2023-04-23T02:41:29.076Z,100307.31
2023-04-23T02:43:57.273Z,100298.41
2023-04-23T02:46:25.620Z,100298.63
2023-04-23T02:48:54.192Z,100286.19
2023-04-23T02:51:23.911Z,100285.31
2023-04-23T02:53:52.059Z,100281.19
2023-04-23T02:56:20.379Z,100269.16
2023-04-23T02:58:48.838Z,100272.63
2023-04-23T03:01:17.498Z,100270.44
2023-04-23T03:03:46.335Z,100274.13
2023-04-23T03:06:14.889Z,100262.66
2023-04-23T03:08:44.398Z,100252.19
2023-04-23T03:11:12.731Z,100255.66
2023-04-23T03:13:40.903Z,100242.91
2023-04-23T03:16:09.267Z,100242.09
2023-04-23T03:18:37.584Z,100240.97
2023-04-23T03:21:06.007Z,100221.50
2023-04-23T03:23:34.188Z,100228.22
2023-04-23T03:26:04.380Z,100230.25
2023-04-23T03:28:32.778Z,100221.59
2023-04-23T03:31:01.043Z,100220.41
2023-04-23T03:33:29.394Z,100206.44
2023-04-23T03:35:58.356Z,100213.91
2023-04-23T03:38:27.990Z,100217.88
2023-04-23T03:40:56.623Z,100207.53
2023-04-23T03:43:26.298Z,100209.38
2023-04-23T03:45:54.624Z,100203.38
2023-04-23T03:48:22.930Z,100203.56
2023-04-23T03:50:51.126Z,100205.13
2023-04-23T03:53:19.456Z,100201.59
2023-04-23T03:55:47.833Z,100198.22
2023-04-23T03:58:16.013Z,100177.53
2023-04-23T04:00:45.573Z,100194.97
2023-04-23T04:03:14.106Z,100192.03
2023-04-23T04:05:42.276Z,100164.97
2023-04-23T04:08:11.359Z,100184.09
2023-04-23T04:10:41.119Z,100194.84
2023-04-23T04:13:09.204Z,100191.69
2023-04-23T04:15:37.570Z,100184.34
2023-04-23T04:18:07.392Z,100164.00
2023-04-23T04:20:35.441Z,100184.56
2023-04-23T04:23:03.671Z,100175.88
2023-04-23T04:25:31.914Z,100179.47
2023-04-23T04:28:00.538Z,100188.66
2023-04-23T04:30:28.933Z,100188.03
2023-04-23T04:32:57.225Z,100193.00
2023-04-23T04:35:26.734Z,100194.84
2023-04-23T04:37:55.250Z,100186.09
2023-04-23T04:40:23.507Z,100183.56
2023-04-23T04:42:52.928Z,100173.72
2023-04-23T04:45:21.631Z,100187.91
2023-04-23T04:47:50.070Z,100170.56
2023-04-23T04:50:18.319Z,100181.31
2023-04-23T04:52:47.954Z,100154.34
2023-04-23T04:55:16.570Z,100168.97
2023-04-23T04:57:44.621Z,100169.94
2023-04-23T05:00:24.507Z,100133.00
2023-04-23T05:02:53.216Z,100168.94
2023-04-23T05:05:23.396Z,100152.69
2023-04-23T05:07:54.375Z,100154.63
2023-04-23T05:10:22.939Z,100163.56
2023-04-23T05:12:52.065Z,100128.91
2023-04-23T05:15:20.554Z,100171.66
2023-04-23T05:17:50.345Z,100174.66
2023-04-23T05:20:18.401Z,100170.06
2023-04-23T05:22:46.775Z,100174.34
2023-04-23T05:25:16.553Z,100172.41
2023-04-23T05:27:44.921Z,100169.84
2023-04-23T05:30:13.708Z,100173.13
2023-04-23T05:32:41.971Z,100180.25
2023-04-23T05:35:10.750Z,100190.56
2023-04-23T05:37:38.962Z,100169.66
2023-04-23T05:40:08.038Z,100185.84
2023-04-23T05:42:38.546Z,100184.38
2023-04-23T05:45:09.093Z,100169.44
2023-04-23T05:47:37.770Z,100171.19
2023-04-23T05:50:07.260Z,100167.03
2023-04-23T05:52:37.771Z,100161.84
2023-04-23T05:55:06.848Z,100167.31
2023-04-23T05:57:35.385Z,100168.97
2023-04-23T06:00:09.773Z,100179.53
2023-04-23T06:02:38.096Z,100170.63
2023-04-23T06:05:08.108Z,100164.38
2023-04-23T06:07:36.739Z,100176.19
2023-04-23T06:10:06.047Z,100172.91
2023-04-23T06:12:34.375Z,100174.78
2023-04-23T06:15:02.425Z,100164.25
2023-04-23T06:17:31.954Z,100169.94
2023-04-23T06:20:00.166Z,100170.19
2023-04-23T06:22:31.318Z,100169.16
2023-04-23T06:24:59.464Z,100158.47
2023-04-23T06:27:28.398Z,100155.03
2023-04-23T06:29:56.713Z,100162.50
2023-04-23T06:32:24.839Z,100159.09
2023-04-23T06:35:00.933Z,100150.06
2023-04-23T06:37:31.763Z,100156.94
2023-04-23T06:40:00.896Z,100152.59
2023-04-23T06:42:29.163Z,100164.41
2023-04-23T06:44:59.588Z,100155.47
2023-04-23T06:47:30.559Z,100152.41
2023-04-23T06:50:00.995Z,100157.31
2023-04-23T06:52:29.146Z,100145.28
2023-04-23T06:54:57.633Z,100141.50
2023-04-23T06:57:25.853Z,100135.94
2023-04-23T06:59:53.927Z,100145.50
2023-04-23T07:02:22.249Z,100143.25
2023-04-23T07:04:51.139Z,100152.41
2023-04-23T07:07:20.900Z,100166.94
2023-04-23T07:09:49.217Z,100165.75
2023-04-23T07:12:17.441Z,100166.78
2023-04-23T07:14:45.513Z,100158.28
2023-04-23T07:17:13.733Z,100171.97
2023-04-23T07:19:42.456Z,100162.91
2023-04-23T07:22:10.771Z,100161.00
2023-04-23T07:24:41.807Z,100142.78
2023-04-23T07:27:10.226Z,100166.16
2023-04-23T07:29:38.328Z,100163.53
2023-04-23T07:32:06.664Z,100159.63
2023-04-23T07:34:37.991Z,100155.00
2023-04-23T07:37:06.323Z,100148.78
2023-04-23T07:39:34.835Z,100151.13
2023-04-23T07:42:05.728Z,100152.69
2023-04-23T07:44:33.780Z,100158.53
2023-04-23T07:47:02.131Z,100160.81
2023-04-23T07:49:30.150Z,100166.56
2023-04-23T07:51:58.445Z,100175.63
2023-04-23T07:54:27.904Z,100165.03
2023-04-23T07:56:57.113Z,100166.56
2023-04-23T07:59:29.005Z,100170.78
2023-04-23T08:01:57.419Z,100167.19
2023-04-23T08:04:25.781Z,100161.06
2023-04-23T08:06:54.430Z,100167.00
2023-04-23T08:09:22.772Z,100154.81
2023-04-23T08:11:50.893Z,100169.50
2023-04-23T08:14:19.692Z,100163.75
2023-04-23T08:16:49.409Z,100123.09
2023-04-23T08:19:17.833Z,100165.41
2023-04-23T08:21:46.113Z,100176.53
2023-04-23T08:24:14.493Z,100175.56
2023-04-23T08:26:42.542Z,100162.03
2023-04-23T08:29:11.687Z,100153.44
2023-04-23T08:31:40.170Z,100165.16
2023-04-23T08:34:10.003Z,100160.41
2023-04-23T08:36:38.467Z,100099.63
2023-04-23T08:39:07.227Z,100172.84
2023-04-23T08:41:40.371Z,100176.13
2023-04-23T08:44:18.530Z,100153.06
2023-04-23T08:46:47.413Z,100168.88
2023-04-23T08:49:18.830Z,100135.38
2023-04-23T08:51:51.369Z,100194.94
2023-04-23T08:54:24.611Z,100169.75
2023-04-23T08:56:53.507Z,100184.59
2023-04-23T08:59:23.156Z,100186.88
2023-04-23T09:01:51.690Z,100190.88
2023-04-23T09:04:21.550Z,100194.22
2023-04-23T09:06:49.722Z,100191.91
2023-04-23T09:09:18.788Z,100194.41
2023-04-23T09:11:47.269Z,100191.91
2023-04-23T09:14:15.704Z,100061.97
2023-04-23T09:16:44.643Z,100199.13
2023-04-23T09:19:13.532Z,100205.09
2023-04-23T09:21:44.428Z,100205.88
2023-04-23T09:24:12.994Z,100217.44
2023-04-23T09:26:47.023Z,100175.34
2023-04-23T09:29:18.610Z,100216.75
2023-04-23T09:31:49.778Z,100219.75
2023-04-23T09:34:18.607Z,100218.69
2023-04-23T09:36:50.768Z,100221.59
2023-04-23T09:39:20.849Z,100225.78
2023-04-23T09:41:49.233Z,100226.81
2023-04-23T09:44:20.118Z,100227.25
2023-04-23T09:46:48.201Z,100226.50
2023-04-23T09:49:16.893Z,100232.75
2023-04-23T09:51:48.383Z,100202.06
2023-04-23T09:54:18.954Z,100239.78
2023-04-23T09:56:51.678Z,100235.47
2023-04-23T09:59:32.590Z,100234.56
2023-04-23T10:02:09.898Z,100235.75
2023-04-23T10:04:39.486Z,100238.25
2023-04-23T10:09:44.927Z,100246.38
2023-04-23T10:14:45.521Z,100237.59
2023-04-23T10:17:13.910Z,100233.72
2023-04-23T10:19:44.382Z,100240.38
2023-04-23T10:22:19.804Z,100225.22
2023-04-23T10:24:53.491Z,100236.72
2023-04-23T10:27:36.897Z,100240.16
2023-04-23T10:30:14.725Z,100240.66
2023-04-23T10:32:43.550Z,100242.78
2023-04-23T10:35:12.128Z,100238.16
2023-04-23T10:37:43.034Z,100241.28
2023-04-23T10:40:15.022Z,100232.41
2023-04-23T10:42:45.672Z,100242.06
2023-04-23T10:45:24.113Z,100213.06
2023-04-23T10:47:56.720Z,100237.31
2023-04-23T10:50:26.752Z,100240.25
2023-04-23T10:52:58.361Z,100241.91
2023-04-23T10:55:29.328Z,100239.06
2023-04-23T10:58:03.125Z,100248.94
2023-04-23T11:00:46.651Z,100244.56
2023-04-23T11:03:43.165Z,100235.94
2023-04-23T11:06:15.809Z,100209.16
2023-04-23T11:08:55.202Z,100239.63
2023-04-23T11:11:40.229Z,100246.28
2023-04-23T11:14:14.511Z,100228.28
2023-04-23T11:16:42.722Z,100250.03
2023-04-23T11:19:12.923Z,100249.47
2023-04-23T11:22:04.715Z,100247.94
2023-04-23T11:24:37.271Z,100242.91
2023-04-23T11:27:08.403Z,100253.97
2023-04-23T11:29:38.389Z,100248.94
2023-04-23T11:32:10.732Z,100243.38
2023-04-23T11:34:40.810Z,100255.69
2023-04-23T11:37:12.050Z,100237.97
2023-04-23T11:39:44.132Z,100225.06
2023-04-23T11:42:13.407Z,100240.78
2023-04-23T11:44:42.396Z,100247.13
2023-04-23T11:47:12.536Z,100274.28
2023-04-23T11:49:43.081Z,100237.97
2023-04-23T11:52:12.439Z,100251.66
2023-04-23T11:54:43.278Z,100259.94
2023-04-23T11:57:11.964Z,100280.97
2023-04-23T11:59:40.518Z,100276.38
2023-04-23T12:02:09.164Z,100280.00
2023-04-23T12:04:40.310Z,100264.94
2023-04-23T12:07:22.994Z,100277.72
2023-04-23T12:10:00.276Z,100263.34
2023-04-23T12:12:34.677Z,100279.25
2023-04-23T12:15:07.130Z,100255.16
2023-04-23T12:17:36.274Z,100279.03
2023-04-23T12:20:07.093Z,100280.47
2023-04-23T12:22:35.322Z,100283.69
2023-04-23T12:25:09.744Z,100288.34
2023-04-23T12:27:42.575Z,100284.00
2023-04-23T12:30:12.700Z,100282.81
2023-04-23T12:32:41.097Z,100284.97
2023-04-23T12:35:11.436Z,100282.81
2023-04-23T12:37:39.831Z,100300.16
2023-04-23T12:40:10.931Z,100287.28
2023-04-23T12:42:39.028Z,100302.78
2023-04-23T12:45:11.302Z,100304.41
2023-04-23T12:47:39.787Z,100309.16
2023-04-23T12:50:09.037Z,100314.06
2023-04-23T12:52:38.331Z,100279.53
2023-04-23T12:55:07.728Z,100302.25
2023-04-23T12:57:37.910Z,100295.44
2023-04-23T13:00:09.249Z,100306.28
2023-04-23T13:02:37.480Z,100304.16
2023-04-23T13:05:06.683Z,100302.84
2023-04-23T13:07:34.920Z,100306.88
2023-04-23T13:10:03.209Z,100306.78
2023-04-23T13:12:31.339Z,100310.78
2023-04-23T13:15:01.363Z,100309.88
2023-04-23T13:17:29.559Z,100302.69
2023-04-23T13:20:01.094Z,100284.59
2023-04-23T13:22:30.252Z,100298.41
2023-04-23T13:24:59.493Z,100296.38
2023-04-23T13:27:29.913Z,100294.56
2023-04-23T13:29:58.924Z,100285.50
2023-04-23T13:32:32.523Z,100293.19
2023-04-23T13:35:04.196Z,100298.56
2023-04-23T13:37:32.907Z,100291.44
2023-04-23T13:40:01.129Z,100275.00
2023-04-23T13:42:29.363Z,100298.19
2023-04-23T13:44:57.734Z,100294.34
2023-04-23T13:47:26.792Z,100299.19
2023-04-23T13:49:56.769Z,100297.50
2023-04-23T13:52:24.987Z,100283.59
2023-04-23T13:54:54.752Z,100285.50
2023-04-23T13:57:23.951Z,100298.81
2023-04-23T13:59:52.538Z,100297.66
2023-04-23T14:02:23.449Z,100294.47
2023-04-23T14:04:51.740Z,100291.53
2023-04-23T14:07:21.301Z,100278.66
2023-04-23T14:09:52.877Z,100284.09
2023-04-23T14:12:21.284Z,100290.34
2023-04-23T14:14:49.756Z,100273.75
2023-04-23T14:17:18.151Z,100273.91
2023-04-23T14:19:46.685Z,100279.47
2023-04-23T14:22:15.042Z,100276.78
2023-04-23T14:24:50.839Z,100288.03
2023-04-23T14:27:19.054Z,100263.34
2023-04-23T14:29:51.987Z,100275.38
2023-04-23T14:32:20.277Z,100287.63
2023-04-23T14:34:48.615Z,100278.63
2023-04-23T14:37:17.807Z,100286.63
2023-04-23T14:39:48.037Z,100285.09
2023-04-23T14:42:16.258Z,100273.94
2023-04-23T14:44:47.345Z,100275.94
2023-04-23T14:47:16.084Z,100275.00
2023-04-23T14:49:45.821Z,100272.16
2023-04-23T14:52:14.380Z,100269.44
2023-04-23T14:54:42.711Z,100260.16
2023-04-23T14:57:14.218Z,100275.25
2023-04-23T14:59:42.661Z,100281.59
2023-04-23T15:02:12.385Z,100285.56
2023-04-23T15:04:40.693Z,100292.81
2023-04-23T15:07:15.145Z,100270.06
2023-04-23T15:09:43.463Z,100283.75
2023-04-23T15:12:48.967Z,100287.38
2023-04-23T15:15:30.496Z,100276.97
2023-04-23T15:18:01.962Z,100258.47
2023-04-23T15:20:30.542Z,100266.97
2023-04-23T15:22:59.036Z,100280.75
2023-04-23T15:25:27.880Z,100278.56
2023-04-23T15:27:58.377Z,100273.34
2023-04-23T15:30:27.169Z,100272.63
2023-04-23T15:32:56.635Z,100261.09
2023-04-23T15:35:25.430Z,100264.66
2023-04-23T15:37:57.412Z,100280.13
2023-04-23T15:40:26.613Z,100268.31
2023-04-23T15:43:00.078Z,100253.00
2023-04-23T15:45:29.537Z,100269.94
2023-04-23T15:47:57.943Z,100264.56
2023-04-23T15:50:28.061Z,100263.13
2023-04-23T15:52:58.398Z,100251.09
2023-04-23T15:55:26.798Z,100260.25
2023-04-23T15:57:55.052Z,100268.84
2023-04-23T16:00:25.068Z,100264.00
2023-04-23T16:02:54.297Z,100243.53
2023-04-23T16:05:23.072Z,100284.03
2023-04-23T16:07:52.164Z,100206.56
2023-04-23T16:10:20.876Z,100256.78
2023-04-23T16:12:49.170Z,100275.41
2023-04-23T16:15:17.487Z,100248.47
2023-04-23T16:17:47.205Z,100273.31
2023-04-23T16:20:16.026Z,100271.38
2023-04-23T16:22:47.594Z,100263.59
2023-04-23T16:25:15.860Z,100278.63
2023-04-23T16:27:44.311Z,100275.47
2023-04-23T16:30:14.979Z,100276.34
2023-04-23T16:32:43.659Z,100273.03
2023-04-23T16:35:17.331Z,100271.66
2023-04-23T16:37:46.022Z,100279.81
2023-04-23T16:40:15.400Z,100276.38
2023-04-23T16:42:43.951Z,100277.16
2023-04-23T16:45:13.057Z,100271.88
2023-04-23T16:47:43.569Z,100254.75
2023-04-23T16:50:16.705Z,100264.84
2023-04-23T16:52:44.890Z,100260.97
2023-04-23T16:55:13.552Z,100251.16
2023-04-23T16:57:42.052Z,100273.41
2023-04-23T17:00:12.665Z,100272.53
2023-04-23T17:02:42.104Z,100269.91
2023-04-23T17:05:11.588Z,100271.66
2023-04-23T17:07:44.166Z,100272.28
2023-04-23T17:10:12.845Z,100266.06
2023-04-23T17:12:40.916Z,100260.47
2023-04-23T17:15:10.257Z,100262.09
2023-04-23T17:17:38.804Z,100266.44
2023-04-23T17:20:08.311Z,100257.59
2023-04-23T17:22:38.120Z,100266.59
2023-04-23T17:25:09.088Z,100262.31
2023-04-23T17:27:37.234Z,100259.69
2023-04-23T17:30:06.833Z,100169.16
2023-04-23T17:32:35.192Z,100264.66
2023-04-23T17:35:10.313Z,100265.50
2023-04-23T17:37:39.324Z,100259.16
2023-04-23T17:40:10.930Z,100237.28
2023-04-23T17:42:39.344Z,100250.16
2023-04-23T17:45:08.735Z,100259.25
2023-04-23T17:47:37.824Z,100261.00
2023-04-23T17:50:09.588Z,100252.50
2023-04-23T17:52:37.977Z,100253.06
2023-04-23T17:55:07.348Z,100261.00
2023-04-23T17:57:37.257Z,100269.06
2023-04-23T18:00:09.971Z,100269.97
2023-04-23T18:02:40.753Z,100252.72
2023-04-23T18:05:11.411Z,100270.91
2023-04-23T18:07:41.051Z,100252.88
2023-04-23T18:10:14.197Z,100259.72
2023-04-23T18:12:44.330Z,100272.00
2023-04-23T18:15:13.135Z,100246.09
2023-04-23T18:17:45.547Z,100275.97
2023-04-23T18:20:14.349Z,100271.56
2023-04-23T18:22:44.981Z,100274.44
2023-04-23T18:25:13.778Z,100265.84
2023-04-23T18:27:43.538Z,100292.28
2023-04-23T18:30:14.668Z,100287.16
2023-04-23T18:32:48.369Z,100267.84
2023-04-23T18:35:19.321Z,100279.59
2023-04-23T18:37:50.573Z,100277.66
2023-04-23T18:40:19.061Z,100273.44
2023-04-23T18:42:48.847Z,100277.66
2023-04-23T18:45:17.235Z,100278.03
2023-04-23T18:47:54.347Z,100288.78
2023-04-23T18:50:43.114Z,100283.69
2023-04-23T18:53:11.399Z,100249.94
2023-04-23T18:55:39.761Z,100289.06
2023-04-23T18:58:09.374Z,100289.66
2023-04-23T19:00:37.626Z,100275.63
2023-04-23T19:03:15.275Z,100283.41
2023-04-23T19:05:50.253Z,100288.69
2023-04-23T19:08:18.723Z,100255.63
2023-04-23T19:10:49.516Z,100292.25
2023-04-23T19:13:20.617Z,100274.84
2023-04-23T19:15:50.583Z,100266.13
2023-04-23T19:18:19.068Z,100273.09
2023-04-23T19:20:47.810Z,100280.16
2023-04-23T19:23:16.077Z,100285.59
2023-04-23T19:25:46.503Z,100283.91
2023-04-23T19:28:15.084Z,100248.44
2023-04-23T19:30:45.130Z,100285.81
2023-04-23T19:33:13.645Z,100280.66
2023-04-23T19:35:42.120Z,100280.81
2023-04-23T19:38:11.410Z,100286.09
2023-04-23T19:40:39.728Z,100297.56
2023-04-23T19:43:08.175Z,100291.47
2023-04-23T19:45:36.593Z,100298.50
2023-04-23T19:48:08.032Z,100300.56
2023-04-23T19:50:36.899Z,100307.59
2023-04-23T19:53:08.000Z,100300.56
2023-04-23T19:55:36.538Z,100303.19
2023-04-23T19:58:06.759Z,100305.72
2023-04-23T20:00:37.519Z,100304.03
2023-04-23T20:03:07.924Z,100302.38
2023-04-23T20:05:36.387Z,100296.22
2023-04-23T20:08:11.485Z,100300.75
2023-04-23T20:10:39.749Z,100302.53
2023-04-23T20:13:08.360Z,100279.06
2023-04-23T20:15:36.909Z,100300.91
2023-04-23T20:18:07.143Z,100299.25
2023-04-23T20:20:36.809Z,100297.66
2023-04-23T20:23:05.081Z,100305.59
2023-04-23T20:25:33.568Z,100279.47
2023-04-23T20:28:01.670Z,100292.44
2023-04-23T20:30:30.070Z,100296.69
2023-04-23T20:32:58.826Z,100255.78
2023-04-23T20:35:30.759Z,100267.94
2023-04-23T20:37:59.350Z,100281.63
2023-04-23T20:40:27.496Z,100288.69
2023-04-23T20:42:55.671Z,100286.91
2023-04-23T20:45:23.911Z,100286.16
2023-04-23T20:47:52.090Z,100283.38
2023-04-23T20:50:20.425Z,100285.09
2023-04-23T20:52:50.193Z,100286.78
2023-04-23T20:55:18.308Z,100285.03
2023-04-23T20:57:46.451Z,100279.72
2023-04-23T21:00:15.027Z,100281.69
2023-04-23T21:02:43.484Z,100279.03
2023-04-23T21:05:13.554Z,100274.63
2023-04-23T21:07:44.484Z,100270.91
2023-04-23T21:10:14.331Z,100270.72
2023-04-23T21:12:43.487Z,100274.28
2023-04-23T21:15:14.342Z,100276.00
2023-04-23T21:17:42.703Z,100274.22
2023-04-23T21:20:11.838Z,100271.50
2023-04-23T21:22:40.020Z,100259.16
2023-04-23T21:25:08.694Z,100247.81
2023-04-23T21:27:38.373Z,100268.66
2023-04-23T21:30:12.432Z,100261.53
2023-04-23T21:32:43.348Z,100260.53
2023-04-23T21:35:11.705Z,100266.66
2023-04-23T21:37:39.899Z,100261.09
2023-04-23T21:40:10.685Z,100261.97
2023-04-23T21:42:40.954Z,100266.41
2023-04-23T21:45:09.735Z,100264.66
2023-04-23T21:47:37.846Z,100270.22
2023-04-23T21:50:08.656Z,100258.31
2023-04-23T21:52:37.210Z,100269.69
2023-04-23T21:55:05.688Z,100267.16
2023-04-23T21:57:34.958Z,100267.44
2023-04-23T22:00:06.691Z,100272.66
2023-04-23T22:02:35.132Z,100274.50
2023-04-23T22:05:04.188Z,100270.06
2023-04-23T22:07:32.437Z,100264.09
2023-04-23T22:10:00.813Z,100272.91
2023-04-23T22:12:28.986Z,100267.56
2023-04-23T22:14:57.059Z,100262.41
2023-04-23T22:17:30.539Z,100256.28
2023-04-23T22:19:58.742Z,100253.66
2023-04-23T22:22:26.836Z,100236.28
2023-04-23T22:24:55.046Z,100251.75
2023-04-23T22:27:23.297Z,100251.94
2023-04-23T22:29:51.475Z,100255.72
2023-04-23T22:32:19.785Z,100255.72
2023-04-23T22:34:49.611Z,100253.97
2023-04-23T22:37:17.953Z,100240.19
2023-04-23T22:39:46.358Z,100240.19
2023-04-23T22:42:16.038Z,100242.06
2023-04-23T22:44:44.638Z,100247.25
2023-04-23T22:47:12.890Z,100240.41
2023-04-23T22:49:42.223Z,100231.81
2023-04-23T22:52:14.434Z,100233.28
2023-04-23T22:54:42.696Z,100240.31
2023-04-23T22:57:11.520Z,100232.34
2023-04-23T22:59:40.582Z,100222.72
2023-04-23T23:02:09.314Z,100215.78
2023-04-23T23:04:39.031Z,100188.00
2023-04-23T23:07:07.697Z,100211.56
2023-04-23T23:09:37.459Z,100214.28
2023-04-23T23:12:06.238Z,100218.59
2023-04-23T23:14:37.943Z,100221.31
2023-04-23T23:17:06.843Z,100214.25
2023-04-23T23:19:34.981Z,100212.56
2023-04-23T23:22:03.445Z,100217.84
2023-04-23T23:24:31.727Z,100229.38
2023-04-23T23:27:01.473Z,100228.56
2023-04-23T23:29:29.943Z,100211.03
2023-04-23T23:31:58.830Z,100202.13
2023-04-23T23:34:26.932Z,100216.66
2023-04-23T23:36:55.358Z,100209.47
2023-04-23T23:39:23.890Z,100211.97
2023-04-23T23:41:51.948Z,100205.59
2023-04-23T23:44:21.528Z,100206.63
2023-04-23T23:46:49.748Z,100212.47
2023-04-23T23:49:20.924Z,100201.34
2023-04-23T23:51:49.177Z,100187.59
2023-04-23T23:54:17.428Z,100206.69
2023-04-23T23:56:45.492Z,100208.59
2023-04-23T23:59:13.774Z,100194.38
